Time;durP1;ratioP1;P1;durP2;ratioP2;P2;SDS_P1;SDS_P2;PMS_P1;PMS_P2;Temp;Humidity;BMP_temperature;BMP_pressure;BME280_temperature;BME280_humidity;BME280_pressure;Samples;Min_cycle;Max_cycle;Signal;HPM_P1;HPM_P2
2021/01/27 00:00:39;;;;;;;;;0.00;0.00;20.00;60.50;;;19.07;46.66;101047.13;5024078;28;8840;-57
2021/01/27 00:03:07;;;;;;;;;0.00;0.00;20.30;60.90;;;19.09;46.65;101037.13;5019301;28;8787;-57
2021/01/27 00:05:41;;;;;;;;;0.00;0.00;20.20;61.00;;;19.12;46.14;101034.13;5025977;28;8782;-57
2021/01/27 00:08:09;;;;;;;;;0.00;0.00;20.40;60.70;;;19.12;46.13;101036.81;5025837;28;8831;-58
2021/01/27 00:10:37;;;;;;;;;1.00;0.00;20.20;60.30;;;19.11;46.39;101024.41;5021560;28;8754;-64
2021/01/27 00:13:10;;;;;;;;;0.00;0.00;20.10;60.50;;;19.11;46.18;101016.38;5026389;28;8778;-59
2021/01/27 00:15:41;;;;;;;;;0.00;0.00;20.30;60.80;;;19.09;45.90;101018.38;5028769;28;8892;-59
2021/01/27 00:18:10;;;;;;;;;0.00;0.00;20.30;60.70;;;19.08;45.94;101001.47;5023274;28;8853;-59
2021/01/27 00:20:37;;;;;;;;;0.00;0.00;20.10;60.80;;;19.12;45.71;100993.97;5016147;28;8789;-60
2021/01/27 00:23:05;;;;;;;;;0.00;0.00;20.20;60.20;;;19.15;45.71;100987.47;5022314;28;8759;-60
2021/01/27 00:25:34;;;;;;;;;0.00;0.00;20.30;60.20;;;19.12;45.72;100980.56;5026205;28;8776;-67
2021/01/27 00:28:02;;;;;;;;;1.00;0.00;20.10;60.20;;;19.14;45.71;100975.91;5027799;28;9596;-69
2021/01/27 00:30:34;;;;;;;;;1.00;0.50;20.00;60.50;;;19.16;45.48;100973.94;5024810;28;8812;-65
2021/01/27 00:33:03;;;;;;;;;0.00;0.00;20.40;60.50;;;19.18;45.71;100974.59;5023512;28;9569;-70
2021/01/27 00:35:35;;;;;;;;;0.00;0.00;20.20;60.40;;;19.17;45.78;100970.25;5028419;28;8916;-66
2021/01/27 00:38:17;;;;;;;;;0.75;0.00;20.10;60.70;;;19.20;46.12;100972.59;5027545;28;9507;-69
2021/01/27 00:40:45;;;;;;;;;0.40;0.00;20.20;61.20;;;19.26;45.83;100974.69;5023850;28;8789;-69
2021/01/27 00:43:12;;;;;;;;;0.00;0.00;20.30;60.70;;;19.29;45.85;100974.38;5023479;28;8790;-72
2021/01/27 00:45:39;;;;;;;;;0.00;0.00;20.20;60.30;;;19.32;45.53;100967.88;5028179;28;8809;-65
2021/01/27 00:48:07;;;;;;;;;0.75;0.75;20.30;59.80;;;19.32;45.38;100962.50;5023433;28;8826;-67
2021/01/27 00:50:36;;;;;;;;;0.80;0.00;20.30;60.10;;;19.32;45.48;100953.66;5009488;28;8792;-70
2021/01/27 00:53:04;;;;;;;;;0.75;0.75;20.40;60.40;;;19.36;45.97;100952.31;5024219;28;8786;-72
2021/01/27 00:55:32;;;;;;;;;0.00;0.00;20.30;60.90;;;19.38;45.70;100934.25;5022133;28;8866;-69
2021/01/27 00:58:01;;;;;;;;;0.50;0.50;20.40;61.00;;;19.42;45.76;100941.00;5027954;28;8807;-62
2021/01/27 01:00:37;;;;;;;;;0.80;0.80;20.60;60.80;;;19.46;45.57;100939.69;5029825;28;8890;-68
2021/01/27 01:03:10;;;;;;;;;0.00;0.00;20.30;60.20;;;19.48;45.57;100937.69;5025538;28;9487;-66
2021/01/27 01:05:43;;;;;;;;;0.00;0.00;20.60;60.40;;;19.47;45.23;100936.03;5033962;28;8823;-66
2021/01/27 01:08:17;;;;;;;;;0.00;0.00;20.40;59.90;;;19.47;45.28;100930.66;5019943;28;9033;-68
2021/01/27 01:10:53;;;;;;;;;0.00;0.00;20.40;60.20;;;19.47;45.23;100920.78;5002986;28;8794;-69
2021/01/27 01:13:26;;;;;;;;;0.00;0.00;20.40;60.20;;;19.46;45.40;100913.75;5026933;28;8814;-69
2021/01/27 01:15:55;;;;;;;;;0.00;0.00;20.60;61.10;;;19.49;45.30;100913.44;5022344;28;8802;-68
2021/01/27 01:18:22;;;;;;;;;0.00;0.00;20.50;60.70;;;19.57;45.31;100909.13;5038045;28;8934;-65
2021/01/27 01:20:50;;;;;;;;;0.00;0.00;20.50;60.30;;;19.58;45.03;100906.28;5020332;28;8796;-57
2021/01/27 01:23:20;;;;;;;;;0.00;0.00;20.70;60.10;;;19.59;45.19;100902.63;5027273;28;8800;-59
2021/01/27 01:25:48;;;;;;;;;0.00;0.00;20.50;60.00;;;19.61;45.28;100897.94;5027664;28;8809;-59
2021/01/27 01:28:16;;;;;;;;;0.00;0.00;20.30;60.10;;;19.62;45.23;100886.22;5022759;28;8930;-57
2021/01/27 01:30:45;;;;;;;;;0.00;0.00;20.60;60.50;;;19.61;45.57;100881.84;5027181;28;8786;-55
2021/01/27 01:33:16;;;;;;;;;0.00;0.00;20.40;61.10;;;19.67;45.27;100877.75;5034945;28;8769;-56
2021/01/27 01:35:45;;;;;;;;;0.00;0.00;20.40;60.90;;;19.72;45.24;100870.91;5025831;28;8782;-59
2021/01/27 01:38:13;;;;;;;;;0.20;0.20;20.90;60.60;;;19.73;44.86;100861.03;5014314;28;8856;-57
2021/01/27 01:40:50;;;;;;;;;4.00;1.60;20.70;59.70;;;19.72;45.14;100878.94;5016840;28;8840;-56
2021/01/27 01:43:16;;;;;;;;;0.20;0.00;20.80;59.90;;;19.72;45.51;100873.59;5021486;28;8819;-60
2021/01/27 01:45:48;;;;;;;;;0.80;0.00;20.60;60.60;;;19.68;45.70;100877.56;5030458;28;8799;-62
2021/01/27 01:48:20;;;;;;;;;0.80;0.00;20.60;61.00;;;19.72;45.35;100880.78;5027287;28;8792;-62
2021/01/27 01:50:57;;;;;;;;;0.00;0.00;20.70;60.90;;;19.73;45.35;100864.53;5014700;28;9496;-62
2021/01/27 01:53:24;;;;;;;;;0.00;0.00;20.80;60.60;;;19.74;45.12;100860.00;5030139;28;8759;-61
2021/01/27 01:55:55;;;;;;;;;0.00;0.00;20.80;60.60;;;19.72;45.03;100862.03;5006957;28;8931;-62
2021/01/27 01:58:23;;;;;;;;;0.00;0.00;20.90;59.90;;;19.68;45.26;100845.41;5026702;28;8822;-62
2021/01/27 02:00:55;;;;;;;;;0.00;0.00;20.90;60.40;;;19.68;45.36;100849.94;5027812;28;8833;-62
2021/01/27 02:03:22;;;;;;;;;0.00;0.00;20.80;59.90;;;19.65;45.66;100834.97;5010906;28;8793;-61
2021/01/27 02:05:50;;;;;;;;;1.00;1.00;20.80;60.60;;;19.72;45.38;100833.38;5019661;28;8840;-62
2021/01/27 02:08:17;;;;;;;;;4.25;3.75;20.80;60.10;;;19.80;45.20;100829.06;5022697;28;8842;-61
2021/01/27 02:10:44;;;;;;;;;8.00;6.00;21.00;59.90;;;19.86;44.88;100823.88;5028567;28;8757;-61
2021/01/27 02:13:47;;;;;;;;;7.25;7.25;21.10;59.50;;;19.94;44.75;100815.88;5025238;28;8770;-61
2021/01/27 02:16:19;;;;;;;;;9.00;8.00;21.10;59.10;;;19.94;44.85;100817.72;5023954;28;8781;-62
2021/01/27 02:19:16;;;;;;;;;6.50;6.25;21.30;58.90;;;19.92;44.74;100815.22;5032377;28;8824;-61
2021/01/27 02:22:31;;;;;;;;;7.50;6.00;21.40;59.10;;;19.91;44.79;100805.47;5023593;28;8899;-62
2021/01/27 02:26:00;;;;;;;;;8.75;8.00;21.00;59.40;;;19.90;45.16;100806.50;5018710;28;8782;-61
2021/01/27 02:28:58;;;;;;;;;9.50;9.00;21.20;60.00;;;19.94;45.30;100791.75;5018651;28;8819;-61
2021/01/27 02:32:04;;;;;;;;;11.75;9.50;21.10;59.90;;;19.95;45.13;100784.56;5007086;28;8913;-62
2021/01/27 02:35:05;;;;;;;;;10.50;8.25;21.20;59.60;;;19.94;45.19;100778.34;5002340;28;8847;-62
2021/01/27 02:38:01;;;;;;;;;8.25;7.50;21.20;60.00;;;19.93;45.29;100774.00;4984986;28;8824;-62
2021/01/27 02:40:33;;;;;;;;;10.00;10.00;21.30;60.10;;;19.92;45.30;100755.38;5013404;28;8809;-62
2021/01/27 02:43:34;;;;;;;;;8.75;8.75;21.20;60.00;;;19.90;45.97;100760.09;5009009;28;8831;-61
2021/01/27 02:46:24;;;;;;;;;9.25;9.25;21.10;60.50;;;19.96;45.77;100740.66;5027562;28;8798;-62
2021/01/27 02:49:03;;;;;;;;;8.00;8.00;21.10;60.60;;;19.98;45.77;100733.28;5012283;28;8812;-62
2021/01/27 02:52:05;;;;;;;;;5.25;4.50;21.10;60.30;;;19.97;45.71;100720.88;5005445;28;8910;-62
2021/01/27 02:55:09;;;;;;;;;10.25;8.75;21.10;60.30;;;19.95;45.93;100718.38;5026055;28;8817;-61
2021/01/27 02:57:58;;;;;;;;;8.75;8.75;21.10;60.40;;;19.92;45.67;100707.97;5007998;28;8808;-61
2021/01/27 03:00:32;;;;;;;;;7.00;6.25;21.20;60.70;;;19.92;45.96;100696.38;5010020;28;8822;-62
2021/01/27 03:03:26;;;;;;;;;8.50;8.25;21.10;60.70;;;19.88;46.10;100695.88;5008775;28;8770;-60
2021/01/27 03:06:04;;;;;;;;;8.50;7.25;20.90;60.90;;;19.83;46.06;100686.66;5004883;28;8796;-61
2021/01/27 03:08:51;;;;;;;;;11.00;10.00;20.90;61.20;;;19.79;46.24;100690.66;5007253;28;8848;-61
2021/01/27 03:11:32;;;;;;;;;9.00;7.75;21.00;61.30;;;19.73;46.55;100671.56;5011027;28;8832;-61
2021/01/27 03:14:01;;;;;;;;;5.25;5.25;21.00;61.50;;;19.68;46.11;100660.50;5022758;28;8795;-61
2021/01/27 03:16:37;;;;;;;;;6.50;5.50;20.80;61.30;;;19.66;46.23;100667.81;5026629;28;8846;-61
2021/01/27 03:19:45;;;;;;;;;7.00;7.00;20.70;61.40;;;19.62;46.56;100642.38;5025184;28;8838;-61
2021/01/27 03:22:34;;;;;;;;;8.00;7.00;20.70;61.50;;;19.59;46.40;100658.78;4998504;28;9482;-61
2021/01/27 03:25:34;;;;;;;;;7.50;7.00;20.80;61.50;;;19.55;46.50;100652.06;5025401;28;8766;-60
2021/01/27 03:28:04;;;;;;;;;6.75;6.75;20.70;61.40;;;19.51;46.57;100639.97;5023647;28;8868;-60
2021/01/27 03:30:34;;;;;;;;;5.75;4.75;20.50;61.40;;;19.47;46.66;100623.41;5013023;28;8794;-61
2021/01/27 03:33:32;;;;;;;;;7.00;6.00;20.40;61.30;;;19.43;46.79;100624.72;5025172;28;8849;-61
2021/01/27 03:36:06;;;;;;;;;4.25;4.25;20.40;61.30;;;19.40;46.77;100622.38;5030226;28;8788;-60
2021/01/27 03:38:52;;;;;;;;;7.75;6.75;20.60;61.40;;;19.37;46.68;100603.09;5015598;28;8823;-60
2021/01/27 03:41:31;;;;;;;;;5.00;5.00;20.60;61.40;;;19.34;46.54;100606.13;5019504;28;8798;-60
2021/01/27 03:44:11;;;;;;;;;7.75;6.75;20.50;61.40;;;19.32;46.85;100610.78;5001339;28;8833;-62
2021/01/27 03:46:56;;;;;;;;;8.00;7.00;20.50;61.60;;;19.30;46.74;100609.09;5003634;28;8890;-61
2021/01/27 03:49:39;;;;;;;;;5.00;4.50;20.40;61.70;;;19.26;46.77;100606.94;5031259;28;8837;-61
2021/01/27 03:52:38;;;;;;;;;3.50;3.25;20.50;61.60;;;19.23;46.72;100617.94;5014797;28;8779;-60
2021/01/27 03:55:56;;;;;;;;;6.50;5.25;20.20;61.10;;;19.21;46.95;100590.47;5006782;28;8786;-60
2021/01/27 03:58:42;;;;;;;;;6.00;5.00;20.30;61.60;;;19.22;46.98;100571.59;5019713;28;8792;-60
2021/01/27 04:01:16;;;;;;;;;5.00;5.00;20.30;61.40;;;19.21;46.88;100579.78;5013205;28;9481;-60
2021/01/27 04:03:45;;;;;;;;;3.00;3.00;20.40;61.40;;;19.19;47.06;100563.06;5032770;28;8809;-60
2021/01/27 04:06:13;;;;;;;;;4.75;4.75;20.40;61.50;;;19.16;47.02;100548.16;4997431;28;8800;-60
2021/01/27 04:08:40;;;;;;;;;4.50;4.50;20.40;61.50;;;19.14;47.04;100549.31;5018118;28;8844;-60
2021/01/27 04:11:08;;;;;;;;;4.00;4.00;20.40;62.20;;;19.12;46.83;100544.09;5026315;28;8829;-60
2021/01/27 04:13:35;;;;;;;;;2.50;2.50;20.40;61.40;;;19.09;47.21;100528.38;5031860;28;8814;-61
2021/01/27 04:16:03;;;;;;;;;4.00;3.75;20.20;61.40;;;19.05;46.99;100527.84;5021829;28;9501;-60
2021/01/27 04:18:31;;;;;;;;;4.00;4.00;20.20;61.60;;;19.07;47.21;100506.28;5014072;28;8845;-60
2021/01/27 04:20:58;;;;;;;;;3.50;3.50;20.30;61.60;;;19.11;47.00;100510.31;5020421;28;8988;-60
2021/01/27 04:23:25;;;;;;;;;3.50;2.00;20.20;61.20;;;19.11;47.01;100510.31;5021867;28;8800;-60
2021/01/27 04:25:51;;;;;;;;;3.00;3.00;20.30;61.10;;;19.08;47.00;100506.13;5014167;28;8837;-60
2021/01/27 04:28:18;;;;;;;;;2.00;2.00;20.10;61.20;;;19.06;46.88;100501.94;5015508;28;8852;-60
2021/01/27 04:30:45;;;;;;;;;2.75;2.75;20.20;61.30;;;19.02;46.97;100481.84;5023926;28;8796;-61
2021/01/27 04:33:12;;;;;;;;;2.00;2.00;20.40;61.50;;;19.02;46.98;100473.81;5013602;28;8812;-61
2021/01/27 04:35:40;;;;;;;;;2.00;2.00;20.30;61.40;;;18.97;46.96;100460.91;5017516;28;8786;-60
2021/01/27 04:38:07;;;;;;;;;1.50;1.00;20.20;61.50;;;19.00;46.98;100465.91;5014885;28;8797;-60
2021/01/27 04:40:44;;;;;;;;;1.00;1.00;20.20;61.40;;;19.04;46.85;100458.41;5013537;28;8801;-60
2021/01/27 04:43:42;;;;;;;;;2.00;2.00;20.30;61.10;;;19.03;46.90;100454.03;4997299;28;8811;-60
2021/01/27 04:46:29;;;;;;;;;2.25;1.75;20.50;61.20;;;19.02;46.93;100430.97;5013841;28;8812;-60
2021/01/27 04:49:30;;;;;;;;;2.00;2.00;20.30;61.00;;;18.99;46.76;100458.06;5013767;28;8854;-60
2021/01/27 04:52:25;;;;;;;;;1.50;1.50;20.20;61.20;;;18.97;46.86;100452.88;5023207;28;8871;-60
2021/01/27 04:55:39;;;;;;;;;1.50;1.50;20.30;61.20;;;18.93;46.89;100437.28;5013010;28;8786;-60
2021/01/27 04:58:21;;;;;;;;;1.50;1.50;20.00;61.10;;;18.93;47.09;100427.47;5009008;28;8896;-61
2021/01/27 05:01:30;;;;;;;;;2.00;1.00;20.20;61.40;;;18.99;46.67;100431.31;5014197;28;8784;-60
2021/01/27 05:04:09;;;;;;;;;0.00;0.00;20.10;60.90;;;18.96;46.95;100437.00;5014935;28;8784;-60
2021/01/27 05:06:42;;;;;;;;;0.50;0.50;20.20;60.80;;;18.97;46.86;100433.31;5018036;28;8821;-60
2021/01/27 05:09:33;;;;;;;;;0.75;0.75;20.20;61.00;;;18.94;46.68;100430.97;5030140;28;8842;-60
2021/01/27 05:12:04;;;;;;;;;1.00;1.00;20.20;61.10;;;18.89;46.96;100417.22;5007031;28;8808;-61
2021/01/27 05:14:31;;;;;;;;;0.00;0.00;20.20;61.20;;;18.85;46.92;100430.94;5017020;28;8814;-60
2021/01/27 05:17:06;;;;;;;;;2.00;2.00;20.10;61.20;;;18.89;47.03;100431.44;5027428;28;8783;-60
2021/01/27 05:19:33;;;;;;;;;0.75;0.00;20.20;61.30;;;18.93;46.62;100416.75;5013778;28;8810;-60
2021/01/27 05:22:01;;;;;;;;;0.00;0.00;20.20;60.90;;;18.93;46.58;100402.50;5007430;28;8832;-61
2021/01/27 05:24:28;;;;;;;;;0.00;0.00;20.40;60.70;;;18.92;46.74;100419.56;5016717;28;9526;-60
2021/01/27 05:27:03;;;;;;;;;1.25;1.00;20.20;60.70;;;18.90;46.84;100401.00;5017968;28;8802;-60
2021/01/27 05:29:42;;;;;;;;;0.00;0.00;20.20;61.00;;;18.85;46.70;100395.28;5027850;28;8822;-60
2021/01/27 05:32:22;;;;;;;;;0.00;0.00;20.20;61.00;;;18.82;47.06;100383.09;5011629;28;9506;-60
2021/01/27 05:34:53;;;;;;;;;0.50;0.50;20.10;61.20;;;18.85;47.05;100372.06;5023130;28;9555;-61
2021/01/27 05:37:29;;;;;;;;;0.50;0.50;20.00;61.10;;;18.87;46.64;100379.91;5015189;28;8801;-60
2021/01/27 05:40:15;;;;;;;;;0.00;0.00;20.30;60.80;;;18.87;46.60;100363.84;5027569;28;9704;-61
2021/01/27 05:42:44;;;;;;;;;0.00;0.00;20.20;60.70;;;18.84;46.78;100372.22;5012775;28;8784;-60
2021/01/27 05:45:45;;;;;;;;;1.00;0.00;20.10;61.00;;;18.81;46.80;100354.66;5028703;28;9547;-60
2021/01/27 05:48:34;;;;;;;;;0.00;0.00;20.00;60.80;;;18.82;46.81;100364.34;5018244;28;8962;-60
2021/01/27 05:51:06;;;;;;;;;0.00;0.00;19.90;61.00;;;18.87;46.94;100382.59;5011536;28;8814;-60
2021/01/27 05:53:34;;;;;;;;;0.00;0.00;20.10;60.90;;;18.84;46.78;100370.38;5023772;28;8817;-60
2021/01/27 05:56:09;;;;;;;;;0.00;0.00;20.20;60.80;;;18.81;46.77;100357.34;5022836;28;8810;-60
2021/01/27 05:58:43;;;;;;;;;0.00;0.00;20.20;61.00;;;18.80;46.91;100361.03;5018626;28;8794;-60
2021/01/27 06:01:36;;;;;;;;;0.00;0.00;19.90;61.00;;;18.77;46.86;100349.78;5022755;28;8812;-61
2021/01/27 06:04:12;;;;;;;;;0.00;0.00;20.30;61.10;;;18.76;46.85;100358.84;5007670;28;8885;-60
2021/01/27 06:06:38;;;;;;;;;0.00;0.00;20.10;61.10;;;18.74;47.03;100356.28;5015978;28;8829;-61
2021/01/27 06:09:07;;;;;;;;;0.00;0.00;20.10;61.10;;;18.71;47.08;100347.75;5031115;28;8834;-60
2021/01/27 06:11:35;;;;;;;;;0.00;0.00;20.20;61.20;;;18.70;46.99;100356.78;5022479;28;8813;-60
2021/01/27 06:14:18;;;;;;;;;0.00;0.00;20.00;61.10;;;18.68;46.97;100354.28;5028731;28;8806;-60
2021/01/27 06:16:49;;;;;;;;;0.00;0.00;20.10;61.40;;;18.64;47.08;100321.66;5032490;28;8783;-61
2021/01/27 06:19:24;;;;;;;;;0.50;0.00;20.00;61.40;;;18.62;47.19;100345.06;5035990;28;8816;-60
2021/01/27 06:22:52;;;;;;;;;0.00;0.00;20.00;61.40;;;18.60;47.23;100341.72;5032429;28;8833;-60
2021/01/27 06:25:56;;;;;;;;;0.00;0.00;19.90;61.40;;;18.57;47.29;100330.50;5012700;28;8822;-60
2021/01/27 06:28:41;;;;;;;;;0.00;0.00;20.00;61.40;;;18.55;47.20;100336.03;5016207;28;8815;-60
2021/01/27 06:31:52;;;;;;;;;0.00;0.00;19.90;61.30;;;18.55;47.13;100324.50;5027720;28;8782;-60
2021/01/27 06:34:52;;;;;;;;;0.00;0.00;20.00;61.40;;;18.53;47.53;100321.16;4972478;28;8904;-61
2021/01/27 06:38:06;;;;;;;;;0.00;0.00;19.70;61.40;;;18.51;47.47;100325.81;4952386;28;8923;-62
2021/01/27 06:40:53;;;;;;;;;0.00;0.00;19.60;61.30;;;18.50;47.49;100329.50;4988249;28;9834;-63
2021/01/27 06:43:51;;;;;;;;;0.25;0.00;19.80;62.30;;;18.48;47.60;100343.03;5015563;28;8844;-62
2021/01/27 06:46:37;;;;;;;;;0.00;0.00;19.70;61.60;;;18.46;47.56;100320.13;5033111;28;8929;-61
2021/01/27 06:49:52;;;;;;;;;0.50;0.00;19.80;61.50;;;18.46;47.73;100307.56;5031535;28;8825;-61
2021/01/27 06:53:01;;;;;;;;;0.00;0.00;19.80;61.50;;;18.44;48.01;100314.91;5028187;28;8876;-61
2021/01/27 06:56:21;;;;;;;;;0.00;0.00;19.70;61.90;;;18.42;47.95;100317.78;5020209;28;8800;-61
2021/01/27 06:59:36;;;;;;;;;2.75;1.25;19.80;62.20;;;18.40;48.29;100301.06;5022766;28;8788;-61
2021/01/27 07:02:58;;;;;;;;;0.75;0.00;19.70;62.20;;;18.37;48.34;100282.66;5023567;28;8820;-62
2021/01/27 07:05:53;;;;;;;;;0.50;0.50;19.50;62.30;;;18.38;48.59;100287.00;5028206;28;8791;-61
2021/01/27 07:09:19;;;;;;;;;0.00;0.00;19.80;62.40;;;18.36;48.60;100269.44;5028561;28;9243;-60
2021/01/27 07:11:58;;;;;;;;;0.00;0.00;19.60;62.20;;;18.34;48.61;100292.84;4997883;28;8887;-61
2021/01/27 07:15:21;;;;;;;;;0.00;0.00;19.70;62.40;;;18.33;48.93;100283.97;5023134;28;8801;-61
2021/01/27 07:18:44;;;;;;;;;0.00;0.00;19.70;62.60;;;18.32;48.78;100289.47;5008817;28;8845;-61
2021/01/27 07:21:16;;;;;;;;;0.50;0.00;19.60;62.80;;;18.31;48.75;100285.16;5032445;28;8810;-61
2021/01/27 07:24:09;;;;;;;;;0.00;0.00;19.50;62.70;;;18.28;48.86;100278.28;5007072;28;8847;-60
2021/01/27 07:27:02;;;;;;;;;0.00;0.00;19.50;62.80;;;18.28;48.76;100290.84;5026703;28;8786;-60
2021/01/27 07:29:57;;;;;;;;;0.00;0.00;19.50;62.90;;;18.27;49.13;100291.81;5019177;28;8828;-61
2021/01/27 07:32:49;;;;;;;;;0.25;0.25;19.40;62.90;;;18.25;49.18;100294.66;5023084;28;9640;-61
2021/01/27 07:35:23;;;;;;;;;0.00;0.00;19.50;63.00;;;18.22;49.01;100295.84;5013681;28;8837;-61
2021/01/27 07:38:18;;;;;;;;;0.00;0.00;19.40;63.10;;;18.22;49.19;100295.84;5027456;28;8802;-61
2021/01/27 07:41:09;;;;;;;;;0.00;0.00;19.50;63.20;;;18.21;49.34;100299.47;5024039;28;8879;-60
2021/01/27 07:43:58;;;;;;;;;0.25;0.25;19.50;63.20;;;18.21;49.51;100283.44;5015684;28;8802;-61
2021/01/27 07:46:59;;;;;;;;;0.50;0.00;19.50;63.20;;;18.19;49.42;100280.13;5007628;28;8786;-61
2021/01/27 07:49:48;;;;;;;;;0.50;0.00;19.40;63.20;;;18.17;49.36;100274.09;5000164;28;8871;-61
2021/01/27 07:52:35;;;;;;;;;0.00;0.00;19.40;63.30;;;18.16;49.61;100279.59;5028151;28;9491;-60
2021/01/27 07:55:19;;;;;;;;;0.00;0.00;19.50;63.40;;;18.16;49.59;100264.38;5028784;28;8836;-60
2021/01/27 07:58:39;;;;;;;;;0.00;0.00;19.60;63.50;;;18.14;49.61;100277.09;5017146;28;8858;-60
2021/01/27 08:01:18;;;;;;;;;0.50;0.00;19.60;63.60;;;18.12;49.51;100287.09;4930833;29;8854;-60
2021/01/27 08:04:15;;;;;;;;;0.00;0.00;19.40;63.50;;;18.10;49.84;100253.53;5019618;28;8817;-60
2021/01/27 08:06:47;;;;;;;;;0.00;0.00;19.60;63.60;;;18.09;49.54;100278.56;5031873;28;8867;-61
2021/01/27 08:09:30;;;;;;;;;0.00;0.00;19.30;63.60;;;18.08;49.65;100260.88;5011759;28;8838;-60
2021/01/27 08:12:28;;;;;;;;;0.00;0.00;19.40;63.70;;;18.08;49.69;100255.50;5012256;28;8870;-61
2021/01/27 08:15:34;;;;;;;;;0.00;0.00;19.40;63.70;;;18.05;49.64;100246.00;5029961;28;8766;-60
2021/01/27 08:18:12;;;;;;;;;0.00;0.00;19.40;63.70;;;18.06;49.83;100257.50;5015089;28;8894;-61
2021/01/27 08:20:42;;;;;;;;;0.50;0.00;19.40;63.80;;;18.04;49.87;100257.69;5024509;28;8785;-61
2021/01/27 08:23:20;;;;;;;;;0.00;0.00;19.30;63.70;;;18.03;49.81;100255.16;5011503;28;9460;-60
2021/01/27 08:25:59;;;;;;;;;0.00;0.00;19.30;63.80;;;18.02;50.01;100251.66;5032954;28;8813;-60
2021/01/27 08:28:39;;;;;;;;;0.00;0.00;19.30;64.50;;;18.02;49.97;100269.53;5029943;28;8803;-60
2021/01/27 08:31:17;;;;;;;;;0.00;0.00;19.30;63.80;;;17.99;49.96;100250.16;5026494;28;8848;-61
2021/01/27 08:33:47;;;;;;;;;0.00;0.00;19.30;63.90;;;17.98;50.13;100234.28;5027459;28;8798;-62
2021/01/27 08:36:29;;;;;;;;;0.00;0.00;19.30;63.90;;;17.98;50.00;100255.66;5023564;28;8787;-61
2021/01/27 08:38:58;;;;;;;;;0.00;0.00;19.40;63.90;;;17.97;50.08;100270.03;5017007;28;8805;-61
2021/01/27 08:41:52;;;;;;;;;0.25;0.00;19.40;64.00;;;17.96;50.15;100231.78;5032367;28;8798;-61
2021/01/27 08:44:21;;;;;;;;;0.00;0.00;19.20;63.90;;;17.93;50.00;100228.56;5013325;28;8811;-60
2021/01/27 08:47:01;;;;;;;;;0.00;0.00;19.30;64.00;;;17.91;50.19;100234.09;5024095;28;8924;-61
2021/01/27 08:49:59;;;;;;;;;0.00;0.00;19.30;64.00;;;17.91;50.08;100263.50;5025951;28;8907;-61
2021/01/27 08:52:41;;;;;;;;;0.00;0.00;19.00;63.90;;;17.91;50.23;100259.97;5030865;28;8858;-61
2021/01/27 08:55:55;;;;;;;;;0.00;0.00;19.20;64.70;;;17.89;50.21;100283.34;5024540;28;8814;-62
2021/01/27 08:58:25;;;;;;;;;0.00;0.00;19.20;64.10;;;17.89;50.36;100294.88;5014314;28;8844;-62
2021/01/27 09:00:59;;;;;;;;;0.00;0.00;19.10;64.20;;;17.89;50.59;100280.69;5032526;28;8810;-62
2021/01/27 09:03:38;;;;;;;;;0.00;0.00;19.20;64.30;;;17.88;50.36;100268.31;5015975;28;8806;-62
2021/01/27 09:06:31;;;;;;;;;0.00;0.00;19.20;64.30;;;17.86;50.52;100273.84;5025961;28;8779;-61
2021/01/27 09:09:26;;;;;;;;;0.00;0.00;19.10;64.30;;;17.83;50.47;100260.78;5023464;28;8828;-61
2021/01/27 09:12:05;;;;;;;;;0.00;0.00;19.10;64.30;;;17.84;50.42;100254.44;5023423;28;8804;-62
2021/01/27 09:14:32;;;;;;;;;0.00;0.00;19.20;64.30;;;17.83;50.55;100251.91;5027498;28;8775;-61
2021/01/27 09:17:04;;;;;;;;;0.00;0.00;19.20;64.40;;;17.83;50.52;100263.44;5020135;28;8889;-61
2021/01/27 09:19:32;;;;;;;;;0.00;0.00;19.30;64.60;;;17.82;50.71;100269.78;5022032;28;8808;-61
2021/01/27 09:22:27;;;;;;;;;0.00;0.00;19.20;64.50;;;17.79;50.69;100270.94;5017271;28;8805;-61
2021/01/27 09:24:57;;;;;;;;;0.00;0.00;19.10;64.60;;;17.79;50.69;100281.63;5022809;28;8800;-61
2021/01/27 09:27:31;;;;;;;;;0.00;0.00;18.90;64.50;;;17.79;50.69;100267.41;5020920;28;8786;-61
2021/01/27 09:30:14;;;;;;;;;0.00;0.00;19.00;64.40;;;17.79;50.85;100284.31;5024981;28;8818;-62
2021/01/27 09:32:42;;;;;;;;;0.00;0.00;19.10;64.40;;;17.78;51.06;100292.44;5029989;28;8794;-62
2021/01/27 09:35:22;;;;;;;;;0.00;0.00;19.30;64.50;;;17.78;50.83;100327.19;5045671;28;8796;-62
2021/01/27 09:38:15;;;;;;;;;0.75;0.00;19.20;64.50;;;17.79;50.75;100355.59;5032875;28;8791;-62
2021/01/27 09:40:46;;;;;;;;;0.00;0.00;19.10;64.50;;;17.78;51.01;100345.88;5028204;28;8806;-61
2021/01/27 09:43:20;;;;;;;;;0.00;0.00;19.30;64.60;;;17.77;50.73;100344.22;5020045;28;8824;-61
2021/01/27 09:45:50;;;;;;;;;0.00;0.00;19.10;64.50;;;17.77;50.75;100338.88;5025894;28;8810;-61
2021/01/27 09:48:23;;;;;;;;;0.00;0.00;19.10;64.60;;;17.75;50.82;100351.53;5016883;28;8786;-61
2021/01/27 09:51:00;;;;;;;;;0.00;0.00;19.00;64.60;;;17.76;50.90;100346.06;5003282;28;8814;-61
2021/01/27 09:53:30;;;;;;;;;0.00;0.00;19.10;64.60;;;17.74;50.94;100350.72;5009373;28;8808;-62
2021/01/27 09:55:57;;;;;;;;;0.00;0.00;19.20;64.70;;;17.74;50.89;100345.38;5029566;28;8814;-61
2021/01/27 09:58:24;;;;;;;;;0.00;0.00;19.10;64.80;;;17.73;51.01;100361.53;5008623;28;8840;-61
2021/01/27 10:00:58;;;;;;;;;0.00;0.00;19.10;64.80;;;17.73;51.08;100369.56;5020478;28;8816;-62
2021/01/27 10:03:44;;;;;;;;;0.00;0.00;18.90;64.60;;;17.72;51.11;100370.56;5013713;28;8891;-61
2021/01/27 10:07:03;;;;;;;;;0.00;0.00;19.10;64.90;;;17.72;51.44;100370.56;5025428;28;8852;-62
2021/01/27 10:09:39;;;;;;;;;0.00;0.00;18.90;65.00;;;17.70;51.36;100392.09;4971940;28;9014;-62
2021/01/27 10:12:17;;;;;;;;;0.00;0.00;18.90;65.00;;;17.72;51.42;100395.44;5006844;28;8838;-62
2021/01/27 10:14:46;;;;;;;;;0.00;0.00;19.00;65.00;;;17.69;51.29;100422.47;5030569;28;8805;-62
2021/01/27 10:17:13;;;;;;;;;0.00;0.00;19.20;65.20;;;17.71;51.25;100419.66;5024622;28;8897;-62
2021/01/27 10:19:50;;;;;;;;;0.00;0.00;19.00;65.20;;;17.70;51.47;100412.63;5009620;28;8874;-61
2021/01/27 10:22:33;;;;;;;;;0.00;0.00;19.20;65.20;;;17.68;51.59;100414.59;5022898;28;8891;-61
2021/01/27 10:25:03;;;;;;;;;0.00;0.00;19.00;65.20;;;17.67;51.29;100418.28;5030213;28;8847;-61
2021/01/27 10:27:41;;;;;;;;;0.00;0.00;19.00;65.20;;;17.66;51.34;100424.63;5019514;28;8855;-62
2021/01/27 10:30:29;;;;;;;;;0.25;0.00;19.10;65.40;;;17.65;51.39;100433.63;5024609;28;8846;-61
2021/01/27 10:32:56;;;;;;;;;0.00;0.00;18.90;65.20;;;17.65;51.46;100429.13;5031197;28;8831;-62
2021/01/27 10:35:28;;;;;;;;;0.00;0.00;19.10;65.30;;;17.66;51.36;100436.16;5030052;28;8810;-61
2021/01/27 10:38:08;;;;;;;;;0.00;0.00;18.80;65.20;;;17.65;51.64;100447.81;5022316;28;8861;-62
2021/01/27 10:40:35;;;;;;;;;0.00;0.00;18.90;65.30;;;17.65;51.41;100446.97;5022730;28;8810;-61
2021/01/27 10:43:24;;;;;;;;;0.00;0.00;18.90;65.30;;;17.61;51.67;100454.47;5030802;28;8808;-62
2021/01/27 10:45:51;;;;;;;;;0.00;0.00;18.90;65.30;;;17.61;51.45;100454.47;5029784;28;8893;-62
2021/01/27 10:48:21;;;;;;;;;0.00;0.00;18.90;65.40;;;17.61;51.64;100465.16;5016024;28;8816;-62
2021/01/27 10:50:54;;;;;;;;;0.00;0.00;18.90;65.50;;;17.62;51.82;100460.66;5032319;28;8798;-62
2021/01/27 10:53:21;;;;;;;;;0.00;0.00;18.90;65.50;;;17.58;51.74;100442.28;5028720;28;8887;-61
2021/01/27 10:55:55;;;;;;;;;0.00;0.00;18.90;65.60;;;17.58;51.58;100452.97;5027601;28;8855;-62
2021/01/27 10:58:23;;;;;;;;;0.00;0.00;18.90;65.50;;;17.61;51.65;100472.34;5031334;28;8827;-62
2021/01/27 11:00:51;;;;;;;;;0.00;0.00;18.90;65.60;;;17.58;51.72;100468.97;5048107;28;8837;-62
2021/01/27 11:03:18;;;;;;;;;0.00;0.00;18.90;65.70;;;17.58;51.93;100485.00;5018894;28;8812;-62
2021/01/27 11:05:46;;;;;;;;;0.00;0.00;18.90;65.90;;;17.56;52.04;100486.97;5034356;28;8794;-61
2021/01/27 11:08:44;;;;;;;;;0.00;0.00;18.70;65.80;;;17.57;51.95;100503.84;5033042;28;9503;-62
2021/01/27 11:11:11;;;;;;;;;0.00;0.00;18.60;65.80;;;17.56;52.06;100495.00;5045127;28;8853;-61
2021/01/27 11:13:39;;;;;;;;;0.00;0.00;18.80;65.90;;;17.55;52.19;100501.34;5030929;28;8821;-62
2021/01/27 11:16:10;;;;;;;;;0.00;0.00;19.10;66.10;;;17.54;52.06;100496.16;5028241;28;8802;-61